Time;durP1;ratioP1;P1;durP2;ratioP2;P2;SDS_P1;SDS_P2;PMS_P1;PMS_P2;Temp;Humidity;BMP_temperature;BMP_pressure;BME280_temperature;BME280_humidity;BME280_pressure;Samples;Min_cycle;Max_cycle;Signal;HPM_P1;HPM_P2
2024/01/10 00:00:02;;;;;;;6.00;2.70;;;;;;;;;;5050639;28;20401;-63
2024/01/10 00:02:28;;;;;;;5.55;2.90;;;;;;;;;;5050015;28;20451;-62
2024/01/10 00:04:53;;;;;;;5.33;3.00;;;;;;;;;;5051111;28;20471;-63
2024/01/10 00:07:18;;;;;;;5.70;3.00;;;;;;;;;;5032416;28;20921;-62
2024/01/10 00:09:45;;;;;;;5.10;2.70;;;;;;;;;;5050325;28;20472;-63
2024/01/10 00:12:10;;;;;;;6.20;3.35;;;;;;;;;;5033070;28;20408;-63
2024/01/10 00:14:36;;;;;;;5.40;2.97;;;;;;;;;;5051093;28;20752;-63
2024/01/10 00:17:01;;;;;;;5.83;2.87;;;;;;;;;;5049531;28;20907;-63
2024/01/10 00:19:26;;;;;;;5.50;2.93;;;;;;;;;;5050866;28;20519;-62
2024/01/10 00:21:52;;;;;;;5.60;3.03;;;;;;;;;;5050467;28;20451;-63
2024/01/10 00:24:17;;;;;;;6.30;3.17;;;;;;;;;;5049953;28;20393;-63
2024/01/10 00:26:42;;;;;;;5.93;2.83;;;;;;;;;;5050844;28;20445;-62
2024/01/10 00:29:07;;;;;;;4.90;2.70;;;;;;;;;;5049960;28;20459;-63
2024/01/10 00:31:33;;;;;;;5.80;3.10;;;;;;;;;;5050232;28;20443;-63
2024/01/10 00:33:58;;;;;;;5.70;3.10;;;;;;;;;;5051501;28;20402;-62
2024/01/10 00:36:23;;;;;;;5.87;3.10;;;;;;;;;;5054188;28;20744;-62
2024/01/10 00:38:48;;;;;;;5.40;2.97;;;;;;;;;;5054146;28;20443;-62
2024/01/10 00:41:14;;;;;;;5.90;2.97;;;;;;;;;;5054478;28;20408;-63
2024/01/10 00:43:39;;;;;;;5.68;3.10;;;;;;;;;;5054616;28;20405;-63
2024/01/10 00:46:05;;;;;;;5.40;3.23;;;;;;;;;;5053697;28;20892;-63
2024/01/10 00:48:30;;;;;;;6.07;3.03;;;;;;;;;;5054514;28;20447;-62
2024/01/10 00:50:55;;;;;;;5.70;2.97;;;;;;;;;;5053749;28;20880;-62
2024/01/10 00:53:21;;;;;;;5.57;3.00;;;;;;;;;;5053973;28;20400;-63
2024/01/10 00:55:46;;;;;;;5.53;3.00;;;;;;;;;;5054567;28;20406;-62
2024/01/10 00:58:11;;;;;;;6.03;3.15;;;;;;;;;;5053218;28;20453;-62
2024/01/10 01:00:36;;;;;;;6.43;3.00;;;;;;;;;;5054415;28;20424;-62
2024/01/10 01:03:02;;;;;;;5.90;2.90;;;;;;;;;;5031576;28;20410;-63
2024/01/10 01:05:27;;;;;;;5.90;3.03;;;;;;;;;;5039132;28;20409;-63
2024/01/10 01:07:52;;;;;;;6.57;3.27;;;;;;;;;;5027191;28;20407;-63
2024/01/10 01:10:18;;;;;;;7.23;3.20;;;;;;;;;;5020974;28;20485;-63
2024/01/10 01:12:43;;;;;;;6.00;3.20;;;;;;;;;;5035150;28;20401;-63
2024/01/10 01:15:08;;;;;;;6.17;3.40;;;;;;;;;;5035612;28;20397;-63
2024/01/10 01:17:34;;;;;;;6.23;3.03;;;;;;;;;;5020734;28;20938;-63
2024/01/10 01:20:00;;;;;;;6.47;3.10;;;;;;;;;;5034764;28;20509;-63
2024/01/10 01:22:25;;;;;;;5.93;2.88;;;;;;;;;;5023826;28;20501;-63
2024/01/10 01:24:50;;;;;;;6.40;3.20;;;;;;;;;;5039467;28;20395;-63
2024/01/10 01:27:15;;;;;;;6.20;3.43;;;;;;;;;;5023119;28;20399;-63
2024/01/10 01:29:41;;;;;;;6.50;3.40;;;;;;;;;;5023902;28;20952;-63
2024/01/10 01:32:06;;;;;;;6.30;3.10;;;;;;;;;;5020853;28;20407;-63
2024/01/10 01:34:31;;;;;;;6.30;3.30;;;;;;;;;;5015674;28;21556;-63
2024/01/10 01:36:57;;;;;;;6.23;3.20;;;;;;;;;;5041340;28;20769;-63
2024/01/10 01:39:22;;;;;;;7.63;3.50;;;;;;;;;;5036454;28;21014;-63
2024/01/10 01:41:47;;;;;;;5.90;3.23;;;;;;;;;;5043158;28;20404;-63
2024/01/10 01:44:13;;;;;;;5.97;3.05;;;;;;;;;;5038538;28;20498;-63
2024/01/10 01:46:40;;;;;;;6.67;3.50;;;;;;;;;;5022972;28;20407;-63
2024/01/10 01:49:05;;;;;;;5.70;3.20;;;;;;;;;;5024750;28;20399;-63
2024/01/10 01:51:30;;;;;;;6.10;2.93;;;;;;;;;;5023540;28;20749;-63
2024/01/10 01:53:56;;;;;;;5.77;3.20;;;;;;;;;;5038979;28;20879;-63
2024/01/10 01:56:21;;;;;;;6.47;3.57;;;;;;;;;;5015606;28;20426;-63
2024/01/10 01:58:47;;;;;;;6.90;3.33;;;;;;;;;;5030499;28;20764;-63
2024/01/10 02:01:12;;;;;;;6.87;3.07;;;;;;;;;;5014341;28;20438;-63
2024/01/10 02:03:37;;;;;;;4.90;2.80;;;;;;;;;;5022527;28;20417;-63
2024/01/10 02:06:03;;;;;;;6.07;3.10;;;;;;;;;;5022661;28;20490;-63
2024/01/10 02:08:29;;;;;;;5.78;3.20;;;;;;;;;;5022774;28;20407;-63
2024/01/10 02:10:54;;;;;;;4.97;3.03;;;;;;;;;;5032143;28;20484;-63
2024/01/10 02:13:20;;;;;;;6.23;3.63;;;;;;;;;;5042337;28;20813;-63
2024/01/10 02:15:45;;;;;;;5.47;3.13;;;;;;;;;;5042460;28;20394;-63
2024/01/10 02:18:12;;;;;;;4.93;2.90;;;;;;;;;;5031844;28;20429;-63
2024/01/10 02:20:37;;;;;;;6.05;3.30;;;;;;;;;;5034650;28;20955;-63
2024/01/10 02:23:02;;;;;;;6.13;3.40;;;;;;;;;;5033047;28;20488;-63
2024/01/10 02:25:28;;;;;;;6.87;3.23;;;;;;;;;;5039386;28;20934;-63
2024/01/10 02:27:53;;;;;;;6.97;3.70;;;;;;;;;;5042338;28;20892;-63
2024/01/10 02:30:18;;;;;;;6.63;3.67;;;;;;;;;;5023920;28;20423;-63
2024/01/10 02:32:44;;;;;;;6.23;3.40;;;;;;;;;;5042247;28;20398;-63
2024/01/10 02:35:09;;;;;;;6.47;3.20;;;;;;;;;;5041622;28;20394;-63
2024/01/10 02:37:34;;;;;;;6.10;3.17;;;;;;;;;;5041616;28;20389;-63
2024/01/10 02:40:00;;;;;;;6.23;3.57;;;;;;;;;;5040042;28;20408;-63
2024/01/10 02:42:26;;;;;;;5.73;3.27;;;;;;;;;;5033967;28;20390;-63
2024/01/10 02:44:52;;;;;;;7.10;3.05;;;;;;;;;;5023730;28;20518;-63
2024/01/10 02:47:17;;;;;;;6.50;3.30;;;;;;;;;;5016572;28;20494;-63
2024/01/10 02:49:42;;;;;;;6.60;3.30;;;;;;;;;;5022419;28;20435;-63
2024/01/10 02:52:08;;;;;;;7.18;3.58;;;;;;;;;;5021578;28;20906;-63
2024/01/10 02:54:33;;;;;;;6.50;3.60;;;;;;;;;;5022549;28;20484;-63
2024/01/10 02:56:58;;;;;;;6.67;3.33;;;;;;;;;;5041184;28;20402;-63
2024/01/10 02:59:23;;;;;;;5.97;3.17;;;;;;;;;;5039927;28;20907;-63
2024/01/10 03:01:49;;;;;;;6.77;3.57;;;;;;;;;;5030243;28;20395;-63
2024/01/10 03:04:14;;;;;;;7.20;3.30;;;;;;;;;;5014310;28;20411;-63
2024/01/10 03:06:39;;;;;;;7.63;3.53;;;;;;;;;;5013632;28;20775;-63
2024/01/10 03:09:05;;;;;;;5.63;3.00;;;;;;;;;;5032682;28;20496;-63
2024/01/10 03:11:33;;;;;;;6.50;3.50;;;;;;;;;;5026272;28;20886;-63
2024/01/10 03:14:06;;;;;;;5.85;3.40;;;;;;;;;;5041797;28;20575;-63
2024/01/10 03:16:32;;;;;;;6.50;3.55;;;;;;;;;;5041488;28;20393;-63
2024/01/10 03:18:57;;;;;;;7.40;3.90;;;;;;;;;;5028605;28;20410;-63
2024/01/10 03:21:25;;;;;;;6.40;3.27;;;;;;;;;;5021201;28;20536;-63
2024/01/10 03:23:51;;;;;;;6.63;3.65;;;;;;;;;;5041049;28;20389;-63
2024/01/10 03:26:16;;;;;;;6.65;3.50;;;;;;;;;;5035063;28;20462;-63
2024/01/10 03:28:42;;;;;;;7.70;3.30;;;;;;;;;;5033167;28;20398;-63
2024/01/10 03:31:07;;;;;;;7.23;3.30;;;;;;;;;;5032877;28;20394;-64
2024/01/10 03:33:32;;;;;;;6.53;3.28;;;;;;;;;;5037583;28;20394;-63
2024/01/10 03:35:57;;;;;;;5.87;3.43;;;;;;;;;;5041363;28;20436;-63
2024/01/10 03:38:23;;;;;;;6.80;3.27;;;;;;;;;;5039856;28;20496;-63
2024/01/10 03:40:48;;;;;;;7.27;3.60;;;;;;;;;;5041051;28;20971;-63
2024/01/10 03:43:13;;;;;;;7.13;3.50;;;;;;;;;;5040691;28;20469;-63
2024/01/10 03:45:38;;;;;;;8.43;3.93;;;;;;;;;;5025193;28;20406;-63
2024/01/10 03:48:04;;;;;;;6.43;3.40;;;;;;;;;;5017260;28;20430;-63
2024/01/10 03:50:29;;;;;;;7.00;3.40;;;;;;;;;;5013734;28;20932;-63
2024/01/10 03:52:55;;;;;;;6.90;3.63;;;;;;;;;;5028210;28;20434;-63
2024/01/10 03:55:20;;;;;;;6.67;3.93;;;;;;;;;;5015077;28;20410;-63
2024/01/10 03:57:45;;;;;;;7.53;3.83;;;;;;;;;;5021449;28;20410;-63
2024/01/10 04:00:11;;;;;;;6.40;3.40;;;;;;;;;;5035781;28;20778;-63
2024/01/10 04:02:37;;;;;;;7.10;3.43;;;;;;;;;;5021305;28;20406;-63
2024/01/10 04:05:02;;;;;;;6.63;3.55;;;;;;;;;;5020475;28;20415;-63
2024/01/10 04:07:28;;;;;;;6.32;3.80;;;;;;;;;;5040030;28;20404;-63
2024/01/10 04:09:53;;;;;;;6.07;3.53;;;;;;;;;;5041452;28;20401;-63
2024/01/10 04:12:18;;;;;;;7.70;3.80;;;;;;;;;;5047796;28;20960;-63
2024/01/10 04:14:44;;;;;;;6.85;3.70;;;;;;;;;;5050663;28;20459;-63
2024/01/10 04:17:09;;;;;;;6.50;3.60;;;;;;;;;;5050010;28;20753;-63
2024/01/10 04:19:36;;;;;;;6.65;3.72;;;;;;;;;;5049408;28;21489;-63
2024/01/10 04:22:01;;;;;;;6.97;3.50;;;;;;;;;;5049392;28;20833;-64
2024/01/10 04:24:26;;;;;;;6.93;3.65;;;;;;;;;;5050971;28;20397;-63
2024/01/10 04:26:52;;;;;;;6.90;3.80;;;;;;;;;;5032950;28;20393;-63
2024/01/10 04:29:17;;;;;;;7.73;3.90;;;;;;;;;;5049495;28;20408;-63
2024/01/10 04:31:42;;;;;;;7.47;3.93;;;;;;;;;;5050708;28;20389;-63
2024/01/10 04:34:08;;;;;;;7.67;4.00;;;;;;;;;;5050050;28;20557;-63
2024/01/10 04:36:33;;;;;;;6.53;3.90;;;;;;;;;;5038880;28;20410;-63
2024/01/10 04:38:58;;;;;;;6.90;3.67;;;;;;;;;;5013071;28;20407;-63
2024/01/10 04:41:23;;;;;;;7.13;4.00;;;;;;;;;;5011580;28;20882;-63
2024/01/10 04:43:49;;;;;;;7.53;3.80;;;;;;;;;;5013631;28;20403;-63
2024/01/10 04:46:14;;;;;;;7.60;3.80;;;;;;;;;;5020157;28;20406;-63
2024/01/10 04:48:39;;;;;;;7.60;3.80;;;;;;;;;;5020698;28;20394;-63
2024/01/10 04:51:05;;;;;;;7.53;4.10;;;;;;;;;;5019768;28;20921;-63
2024/01/10 04:53:30;;;;;;;6.87;3.83;;;;;;;;;;5020843;28;20456;-63
2024/01/10 04:55:55;;;;;;;6.60;3.83;;;;;;;;;;5020413;28;20486;-63
2024/01/10 04:58:21;;;;;;;6.90;3.87;;;;;;;;;;5019923;28;20411;-63
2024/01/10 05:00:46;;;;;;;7.50;4.07;;;;;;;;;;5029755;28;20806;-63
2024/01/10 05:03:11;;;;;;;7.33;3.80;;;;;;;;;;5011791;28;20451;-63
2024/01/10 05:05:37;;;;;;;6.83;3.90;;;;;;;;;;5011871;28;20491;-63
2024/01/10 05:08:02;;;;;;;7.40;4.00;;;;;;;;;;5018014;28;20411;-64
2024/01/10 05:10:27;;;;;;;7.07;3.80;;;;;;;;;;5020314;28;20403;-63
2024/01/10 05:12:53;;;;;;;7.27;4.00;;;;;;;;;;5019877;28;20910;-63
2024/01/10 05:15:18;;;;;;;7.10;4.07;;;;;;;;;;5020056;28;20494;-63
2024/01/10 05:17:44;;;;;;;7.18;3.90;;;;;;;;;;5037002;28;20401;-63
2024/01/10 05:20:09;;;;;;;7.23;3.90;;;;;;;;;;5019246;28;20756;-63
2024/01/10 05:22:35;;;;;;;7.90;4.05;;;;;;;;;;5034473;28;20398;-63
2024/01/10 05:25:00;;;;;;;7.40;4.00;;;;;;;;;;5030449;28;20411;-66
2024/01/10 05:27:26;;;;;;;6.83;3.97;;;;;;;;;;5015277;28;20399;-63
2024/01/10 05:29:52;;;;;;;7.50;4.30;;;;;;;;;;5019969;28;20834;-63
2024/01/10 05:32:17;;;;;;;7.47;4.03;;;;;;;;;;5022680;28;20460;-63
2024/01/10 05:34:42;;;;;;;8.20;4.60;;;;;;;;;;5032014;28;20401;-63
2024/01/10 05:37:07;;;;;;;7.40;4.10;;;;;;;;;;5025511;28;20531;-63
2024/01/10 05:39:33;;;;;;;8.43;3.93;;;;;;;;;;5022849;28;20403;-63
2024/01/10 05:41:58;;;;;;;7.10;4.40;;;;;;;;;;5023946;28;20387;-63
2024/01/10 05:44:23;;;;;;;8.50;4.60;;;;;;;;;;5027768;28;20445;-63
2024/01/10 05:46:48;;;;;;;8.17;4.73;;;;;;;;;;5035654;28;20382;-63
2024/01/10 05:49:14;;;;;;;8.17;4.50;;;;;;;;;;5015775;28;20394;-63
2024/01/10 05:51:39;;;;;;;7.70;4.40;;;;;;;;;;5015211;28;20442;-63
2024/01/10 05:54:04;;;;;;;8.77;4.77;;;;;;;;;;5021384;28;20482;-63
2024/01/10 05:56:30;;;;;;;9.03;5.00;;;;;;;;;;5023648;28;20399;-63
2024/01/10 05:58:55;;;;;;;8.77;4.87;;;;;;;;;;5023392;28;20403;-63
2024/01/10 06:01:20;;;;;;;8.80;4.87;;;;;;;;;;5022394;28;20474;-63
2024/01/10 06:03:45;;;;;;;8.53;4.40;;;;;;;;;;5023638;28;20424;-63
2024/01/10 06:06:11;;;;;;;8.60;5.00;;;;;;;;;;5022311;28;20441;-64
2024/01/10 06:08:36;;;;;;;9.17;5.00;;;;;;;;;;5018574;28;20544;-63
2024/01/10 06:11:03;;;;;;;9.23;5.00;;;;;;;;;;5014370;28;20407;-64
2024/01/10 06:13:28;;;;;;;8.68;4.90;;;;;;;;;;5016800;28;20910;-63
2024/01/10 06:15:54;;;;;;;8.90;4.87;;;;;;;;;;5018258;28;20399;-63
2024/01/10 06:18:19;;;;;;;7.97;4.67;;;;;;;;;;5038340;28;20430;-63
2024/01/10 06:20:44;;;;;;;7.90;4.60;;;;;;;;;;5022509;28;20407;-63
2024/01/10 06:23:10;;;;;;;8.07;4.77;;;;;;;;;;5022322;28;20395;-63
2024/01/10 06:25:35;;;;;;;8.80;4.93;;;;;;;;;;5023002;28;20482;-63
2024/01/10 06:28:00;;;;;;;8.77;4.60;;;;;;;;;;5022362;28;20509;-63
2024/01/10 06:30:25;;;;;;;9.10;5.17;;;;;;;;;;5020254;28;20406;-63
2024/01/10 06:32:51;;;;;;;9.47;5.57;;;;;;;;;;5014787;28;20407;-63
2024/01/10 06:35:16;;;;;;;9.20;5.27;;;;;;;;;;5013831;28;20395;-63
2024/01/10 06:37:44;;;;;;;9.13;5.30;;;;;;;;;;5015431;28;20755;-63
2024/01/10 06:40:09;;;;;;;9.82;5.05;;;;;;;;;;5041531;28;20413;-63
2024/01/10 06:42:35;;;;;;;10.38;5.97;;;;;;;;;;5041693;28;20398;-63
2024/01/10 06:45:00;;;;;;;9.63;5.40;;;;;;;;;;5030619;28;20413;-66
2024/01/10 06:47:25;;;;;;;9.13;5.13;;;;;;;;;;5022717;28;20482;-63
2024/01/10 06:49:51;;;;;;;9.50;5.27;;;;;;;;;;5021469;28;20513;-63
2024/01/10 06:52:16;;;;;;;10.23;5.60;;;;;;;;;;5022000;28;20438;-63
2024/01/10 06:54:41;;;;;;;10.10;5.40;;;;;;;;;;5015076;28;20412;-63
2024/01/10 06:57:07;;;;;;;9.60;5.50;;;;;;;;;;5012888;28;21099;-64
2024/01/10 06:59:32;;;;;;;10.23;5.60;;;;;;;;;;5018922;28;20405;-63
2024/01/10 07:01:58;;;;;;;10.07;6.10;;;;;;;;;;5021427;28;20497;-63
2024/01/10 07:04:23;;;;;;;10.33;5.80;;;;;;;;;;5021298;28;20411;-63
2024/01/10 07:06:49;;;;;;;10.32;5.80;;;;;;;;;;5022356;28;20452;-63
2024/01/10 07:09:19;;;;;;;9.52;5.78;;;;;;;;;;5021184;28;20403;-62
2024/01/10 07:11:45;;;;;;;10.25;5.90;;;;;;;;;;5025446;28;20956;-61
2024/01/10 07:14:10;;;;;;;10.15;5.75;;;;;;;;;;5021522;28;20410;-62
2024/01/10 07:16:35;;;;;;;10.43;5.77;;;;;;;;;;5016893;28;20423;-61
2024/01/10 07:19:01;;;;;;;10.40;6.07;;;;;;;;;;5012567;28;20415;-62
2024/01/10 07:21:26;;;;;;;11.10;6.18;;;;;;;;;;5013735;28;20410;-60
2024/01/10 07:23:52;;;;;;;11.57;6.50;;;;;;;;;;5018124;28;20407;-60
2024/01/10 07:26:17;;;;;;;12.33;6.33;;;;;;;;;;5020796;28;20502;-61
2024/01/10 07:28:42;;;;;;;10.03;6.10;;;;;;;;;;5021261;28;20407;-60
2024/01/10 07:31:07;;;;;;;12.37;6.97;;;;;;;;;;5021598;28;20415;-61
2024/01/10 07:33:33;;;;;;;11.80;6.87;;;;;;;;;;5021029;28;20443;-62
2024/01/10 07:35:58;;;;;;;10.20;5.80;;;;;;;;;;5023311;28;20891;-60
2024/01/10 07:38:23;;;;;;;11.77;6.93;;;;;;;;;;5037827;28;20401;-61
2024/01/10 07:40:48;;;;;;;10.77;6.37;;;;;;;;;;5032177;28;20406;-61
2024/01/10 07:43:14;;;;;;;11.67;6.63;;;;;;;;;;5012473;28;20403;-61
2024/01/10 07:45:39;;;;;;;11.07;6.80;;;;;;;;;;4999947;28;20498;-61
2024/01/10 07:48:04;;;;;;;11.37;6.47;;;;;;;;;;5020375;28;20413;-62
2024/01/10 07:50:30;;;;;;;11.50;6.97;;;;;;;;;;5021062;28;20399;-62
2024/01/10 07:52:56;;;;;;;11.52;6.70;;;;;;;;;;5040091;28;20455;-62
2024/01/10 07:55:21;;;;;;;11.47;6.90;;;;;;;;;;5040305;28;20389;-62
2024/01/10 07:57:47;;;;;;;12.53;6.50;;;;;;;;;;5040589;28;20896;-61
2024/01/10 08:00:13;;;;;;;12.20;6.83;;;;;;;;;;5040578;28;20459;-62
2024/01/10 08:02:38;;;;;;;12.83;7.33;;;;;;;;;;5050361;28;20416;-62
2024/01/10 08:05:05;;;;;;;11.53;6.70;;;;;;;;;;5050434;28;20844;-62
2024/01/10 08:07:32;;;;;;;12.60;7.45;;;;;;;;;;5050192;28;20473;-62
2024/01/10 08:09:58;;;;;;;13.40;7.22;;;;;;;;;;5049408;28;20397;-62
2024/01/10 08:12:24;;;;;;;13.53;7.27;;;;;;;;;;5046265;28;20381;-62
2024/01/10 08:14:50;;;;;;;11.85;7.05;;;;;;;;;;5032426;28;20405;-61
2024/01/10 08:17:15;;;;;;;12.25;7.05;;;;;;;;;;5049917;28;20404;-62
2024/01/10 08:19:40;;;;;;;12.67;7.17;;;;;;;;;;5050410;28;20901;-61
2024/01/10 08:22:07;;;;;;;15.10;7.60;;;;;;;;;;5049542;28;20394;-62
2024/01/10 08:24:33;;;;;;;13.18;7.63;;;;;;;;;;5050748;28;20427;-62
2024/01/10 08:26:58;;;;;;;13.15;7.28;;;;;;;;;;5050148;28;20402;-62
2024/01/10 08:29:30;;;;;;;13.37;7.80;;;;;;;;;;5049527;28;20442;-62
2024/01/10 08:31:55;;;;;;;12.27;7.00;;;;;;;;;;5042272;28;20492;-62
2024/01/10 08:34:20;;;;;;;15.10;7.73;;;;;;;;;;5049892;28;20795;-62
2024/01/10 08:36:47;;;;;;;13.67;8.33;;;;;;;;;;5050066;28;20874;-62
2024/01/10 08:39:12;;;;;;;12.52;7.40;;;;;;;;;;5050036;28;20840;-62
2024/01/10 08:41:42;;;;;;;13.23;7.63;;;;;;;;;;5050350;28;20421;-61
2024/01/10 08:44:08;;;;;;;13.30;7.57;;;;;;;;;;5049375;28;20446;-62
2024/01/10 08:46:33;;;;;;;12.70;7.80;;;;;;;;;;5050024;28;20461;-62
2024/01/10 08:48:59;;;;;;;13.03;7.47;;;;;;;;;;5050305;28;20487;-62
2024/01/10 08:51:24;;;;;;;13.55;7.80;;;;;;;;;;5049247;28;20425;-62
2024/01/10 08:53:49;;;;;;;13.00;7.97;;;;;;;;;;5050674;28;20427;-62
2024/01/10 08:56:15;;;;;;;13.93;7.70;;;;;;;;;;5034160;28;20494;-61
2024/01/10 08:58:40;;;;;;;13.23;7.93;;;;;;;;;;5054013;28;20437;-62
2024/01/10 09:01:05;;;;;;;13.17;7.87;;;;;;;;;;5053380;28;20397;-62
2024/01/10 09:03:31;;;;;;;13.60;8.13;;;;;;;;;;5053655;28;20386;-61
2024/01/10 09:05:56;;;;;;;13.80;7.77;;;;;;;;;;5054272;28;20396;-62
2024/01/10 09:08:22;;;;;;;14.80;8.33;;;;;;;;;;5053484;28;20393;-62
2024/01/10 09:10:49;;;;;;;16.00;8.43;;;;;;;;;;5053411;28;20877;-62
2024/01/10 09:13:14;;;;;;;13.38;8.00;;;;;;;;;;5053034;28;20435;-62
2024/01/10 09:15:39;;;;;;;13.93;8.07;;;;;;;;;;5053938;28;20888;-62
2024/01/10 09:18:05;;;;;;;12.67;7.90;;;;;;;;;;5052391;28;20409;-62
2024/01/10 09:20:30;;;;;;;15.60;7.57;;;;;;;;;;5054067;28;20404;-62
2024/01/10 09:22:55;;;;;;;13.82;7.65;;;;;;;;;;5053637;28;20394;-62
2024/01/10 09:25:21;;;;;;;13.27;7.70;;;;;;;;;;5052665;28;20461;-62
2024/01/10 09:27:46;;;;;;;14.23;7.93;;;;;;;;;;5053545;28;20428;-62
2024/01/10 09:30:12;;;;;;;13.32;7.88;;;;;;;;;;5053150;28;20807;-62
2024/01/10 09:32:38;;;;;;;13.70;7.95;;;;;;;;;;5053265;28;20393;-62
2024/01/10 09:35:04;;;;;;;14.00;8.10;;;;;;;;;;5053484;28;20960;-62
2024/01/10 09:37:30;;;;;;;14.10;7.83;;;;;;;;;;5053275;28;20405;-62
2024/01/10 09:39:55;;;;;;;15.02;8.25;;;;;;;;;;5053085;28;20409;-62
2024/01/10 09:42:25;;;;;;;14.50;7.77;;;;;;;;;;5052854;28;20927;-62
2024/01/10 09:44:50;;;;;;;14.82;8.70;;;;;;;;;;5036106;28;20389;-62
2024/01/10 09:47:16;;;;;;;21.85;14.45;;;;;;;;;;5034248;28;20417;-62
2024/01/10 09:49:44;;;;;;;14.07;8.25;;;;;;;;;;5053118;28;20393;-62
2024/01/10 09:52:10;;;;;;;13.43;8.02;;;;;;;;;;5052713;28;20393;-62
2024/01/10 09:54:35;;;;;;;15.43;8.43;;;;;;;;;;5052900;28;20389;-62
2024/01/10 09:57:00;;;;;;;14.47;8.23;;;;;;;;;;5034774;28;20393;-64
2024/01/10 09:59:26;;;;;;;13.90;8.27;;;;;;;;;;5052970;28;20436;-62
2024/01/10 10:01:51;;;;;;;14.47;8.73;;;;;;;;;;5052844;28;20401;-62
2024/01/10 10:04:17;;;;;;;14.40;9.15;;;;;;;;;;5052408;28;20397;-63
2024/01/10 10:06:42;;;;;;;14.87;8.40;;;;;;;;;;5052106;28;20398;-63
2024/01/10 10:09:08;;;;;;;13.55;8.18;;;;;;;;;;5052851;28;20851;-63
2024/01/10 10:11:33;;;;;;;14.50;8.30;;;;;;;;;;5027228;28;20389;-63
2024/01/10 10:14:13;;;;;;;18.97;11.83;;;;;;;;;;5052213;28;20406;-62
2024/01/10 10:16:38;;;;;;;34.45;22.23;;;;;;;;;;5052668;28;20970;-63
2024/01/10 10:19:03;;;;;;;19.33;12.15;;;;;;;;;;5051790;28;20473;-63
2024/01/10 10:21:30;;;;;;;21.30;13.23;;;;;;;;;;5052533;28;20385;-63
2024/01/10 10:23:57;;;;;;;27.58;15.52;;;;;;;;;;5052778;28;20406;-62
2024/01/10 10:26:23;;;;;;;26.42;15.20;;;;;;;;;;5034138;28;20761;-62
2024/01/10 10:28:49;;;;;;;44.65;22.35;;;;;;;;;;5052158;28;20484;-63
2024/01/10 10:31:16;;;;;;;43.55;22.90;;;;;;;;;;5052169;28;20537;-63
2024/01/10 10:33:41;;;;;;;57.38;29.63;;;;;;;;;;5052053;28;20400;-62
2024/01/10 10:36:07;;;;;;;47.25;23.35;;;;;;;;;;5058845;28;20409;-63
2024/01/10 10:38:33;;;;;;;29.50;16.80;;;;;;;;;;5052164;28;20493;-63
2024/01/10 10:40:58;;;;;;;25.92;15.57;;;;;;;;;;5052345;28;20477;-63
2024/01/10 10:43:24;;;;;;;16.27;9.53;;;;;;;;;;5060786;28;20374;-63
2024/01/10 10:45:49;;;;;;;14.00;8.83;;;;;;;;;;5052121;28;20393;-63
2024/01/10 10:48:20;;;;;;;24.40;15.73;;;;;;;;;;5051547;28;20497;-63
2024/01/10 10:50:50;;;;;;;15.77;10.10;;;;;;;;;;5051816;28;20436;-63
2024/01/10 10:53:15;;;;;;;15.80;9.82;;;;;;;;;;5051233;28;20454;-63
2024/01/10 10:55:40;;;;;;;15.75;9.57;;;;;;;;;;5034647;28;20398;-63
2024/01/10 10:58:06;;;;;;;13.43;9.47;;;;;;;;;;5032973;28;20738;-63
2024/01/10 11:00:31;;;;;;;15.40;10.90;;;;;;;;;;5051956;28;20428;-63
2024/01/10 11:02:57;;;;;;;17.83;14.03;;;;;;;;;;5051406;28;20398;-63
2024/01/10 11:05:23;;;;;;;17.65;12.05;;;;;;;;;;5051522;28;20374;-63
2024/01/10 11:07:48;;;;;;;17.03;11.50;;;;;;;;;;5051702;28;20405;-63
2024/01/10 11:10:16;;;;;;;13.27;9.33;;;;;;;;;;5050949;28;20398;-63
2024/01/10 11:12:56;;;;;;;13.27;8.30;;;;;;;;;;5034037;28;20425;-63
2024/01/10 11:15:30;;;;;;;14.02;8.57;;;;;;;;;;5049341;28;20383;-63
2024/01/10 11:17:55;;;;;;;17.35;9.20;;;;;;;;;;5032901;28;20404;-62
2024/01/10 11:20:22;;;;;;;12.80;7.93;;;;;;;;;;5050237;28;20399;-62
2024/01/10 11:22:49;;;;;;;13.93;8.18;;;;;;;;;;5026129;28;20398;-62
2024/01/10 11:25:15;;;;;;;12.32;7.47;;;;;;;;;;5050438;28;20398;-62
2024/01/10 11:27:40;;;;;;;14.35;8.10;;;;;;;;;;5051490;28;20398;-62
2024/01/10 11:30:06;;;;;;;12.90;8.40;;;;;;;;;;5050793;28;20475;-63
2024/01/10 11:32:31;;;;;;;15.60;8.30;;;;;;;;;;5046464;28;20401;-62
2024/01/10 11:34:58;;;;;;;14.70;8.53;;;;;;;;;;5033604;28;20507;-62
2024/01/10 11:37:23;;;;;;;17.60;10.57;;;;;;;;;;5050426;28;20865;-62
2024/01/10 11:39:50;;;;;;;14.50;8.47;;;;;;;;;;5032748;28;20417;-63
2024/01/10 11:42:23;;;;;;;16.15;10.00;;;;;;;;;;5050644;28;20488;-62
2024/01/10 11:44:49;;;;;;;14.30;8.70;;;;;;;;;;5051278;28;20519;-62
2024/01/10 11:47:15;;;;;;;15.48;9.40;;;;;;;;;;5049011;28;20451;-63
2024/01/10 11:49:40;;;;;;;16.93;10.63;;;;;;;;;;5050509;28;20800;-63
2024/01/10 11:52:05;;;;;;;13.95;8.43;;;;;;;;;;5047805;28;20475;-63
2024/01/10 11:54:35;;;;;;;13.07;7.73;;;;;;;;;;5046032;28;20385;-63
2024/01/10 11:57:01;;;;;;;12.75;7.95;;;;;;;;;;5050933;28;20481;-63
2024/01/10 11:59:26;;;;;;;13.75;8.38;;;;;;;;;;5049720;28;20489;-63
2024/01/10 12:01:51;;;;;;;13.00;8.00;;;;;;;;;;5032814;28;20410;-63
2024/01/10 12:04:17;;;;;;;13.15;8.40;;;;;;;;;;5050039;28;20409;-63
2024/01/10 12:06:42;;;;;;;15.37;8.97;;;;;;;;;;5050347;28;20429;-63
2024/01/10 12:09:08;;;;;;;13.37;7.60;;;;;;;;;;5050092;28;20401;-63
2024/01/10 12:11:34;;;;;;;12.18;7.57;;;;;;;;;;5050531;28;20460;-63
2024/01/10 12:14:00;;;;;;;13.02;8.15;;;;;;;;;;5050030;28;21014;-63
2024/01/10 12:16:25;;;;;;;13.40;8.30;;;;;;;;;;5049913;28;20390;-63
2024/01/10 12:18:51;;;;;;;16.80;9.73;;;;;;;;;;5049812;28;20912;-63
2024/01/10 12:21:16;;;;;;;15.63;8.68;;;;;;;;;;5049687;28;20402;-63
2024/01/10 12:23:42;;;;;;;17.73;9.90;;;;;;;;;;5050736;28;20404;-63
2024/01/10 12:26:09;;;;;;;14.40;8.38;;;;;;;;;;5050005;28;20393;-63
2024/01/10 12:28:35;;;;;;;29.85;16.15;;;;;;;;;;5049861;28;20408;-63
2024/01/10 12:31:00;;;;;;;17.10;10.95;;;;;;;;;;5049557;28;20393;-64
2024/01/10 12:33:26;;;;;;;13.67;8.40;;;;;;;;;;5050200;28;20400;-63
2024/01/10 12:36:04;;;;;;;14.10;8.27;;;;;;;;;;5050011;28;20401;-63
2024/01/10 12:38:29;;;;;;;13.00;7.60;;;;;;;;;;5042114;28;20440;-63
2024/01/10 12:40:54;;;;;;;11.77;7.53;;;;;;;;;;5050493;28;20402;-63
2024/01/10 12:43:19;;;;;;;14.33;7.83;;;;;;;;;;5049462;28;20394;-63
2024/01/10 12:45:45;;;;;;;12.03;7.50;;;;;;;;;;5049470;28;20443;-63
2024/01/10 12:48:13;;;;;;;13.20;7.40;;;;;;;;;;5049699;28;20921;-63
2024/01/10 12:50:38;;;;;;;13.27;7.53;;;;;;;;;;5050123;28;20397;-63
2024/01/10 12:53:04;;;;;;;13.67;7.20;;;;;;;;;;5049667;28;20452;-63
2024/01/10 12:55:29;;;;;;;14.40;8.00;;;;;;;;;;5032115;28;20385;-63
2024/01/10 12:57:55;;;;;;;12.50;7.23;;;;;;;;;;5050367;28;20762;-63
2024/01/10 13:00:20;;;;;;;11.97;7.43;;;;;;;;;;5048680;28;20442;-63
2024/01/10 13:02:46;;;;;;;13.63;8.30;;;;;;;;;;5049861;28;20424;-63
2024/01/10 13:05:12;;;;;;;13.75;8.32;;;;;;;;;;5049355;28;20389;-63
2024/01/10 13:07:37;;;;;;;13.90;8.07;;;;;;;;;;5032226;28;20393;-62
2024/01/10 13:10:02;;;;;;;12.83;8.60;;;;;;;;;;5049184;28;20401;-63
2024/01/10 13:12:28;;;;;;;17.40;12.10;;;;;;;;;;5050164;28;20847;-63
2024/01/10 13:14:53;;;;;;;28.40;17.37;;;;;;;;;;5049941;28;20394;-63
2024/01/10 13:17:19;;;;;;;14.50;9.00;;;;;;;;;;5048480;28;20394;-63
2024/01/10 13:19:48;;;;;;;12.07;7.70;;;;;;;;;;5049594;28;20444;-63
2024/01/10 13:22:15;;;;;;;14.77;8.07;;;;;;;;;;5049485;28;20396;-63
2024/01/10 13:24:41;;;;;;;12.00;7.55;;;;;;;;;;5032085;28;20758;-63
2024/01/10 13:27:07;;;;;;;12.27;7.38;;;;;;;;;;5049551;28;20404;-63
2024/01/10 13:29:32;;;;;;;16.03;7.37;;;;;;;;;;5031945;28;20397;-63
2024/01/10 13:31:57;;;;;;;12.07;7.50;;;;;;;;;;5048978;28;20397;-63
2024/01/10 13:34:23;;;;;;;13.40;7.73;;;;;;;;;;5049468;28;20808;-63
2024/01/10 13:36:48;;;;;;;13.13;8.00;;;;;;;;;;5049893;28;20484;-63
2024/01/10 13:39:15;;;;;;;12.43;7.30;;;;;;;;;;5048615;28;20505;-63
2024/01/10 13:41:40;;;;;;;11.25;6.90;;;;;;;;;;5049939;28;20492;-63
2024/01/10 13:44:05;;;;;;;12.40;7.43;;;;;;;;;;5053078;28;20397;-63
2024/01/10 13:46:31;;;;;;;12.47;7.07;;;;;;;;;;5052398;28;20439;-63
2024/01/10 13:48:56;;;;;;;11.40;7.27;;;;;;;;;;5052751;28;20487;-63
2024/01/10 13:51:21;;;;;;;11.73;7.13;;;;;;;;;;5051632;28;20382;-63
2024/01/10 13:53:46;;;;;;;12.00;7.40;;;;;;;;;;5034913;28;20749;-63
2024/01/10 13:56:12;;;;;;;13.50;7.40;;;;;;;;;;5052714;28;20482;-63
2024/01/10 13:58:38;;;;;;;12.95;7.38;;;;;;;;;;5052603;28;20402;-63
2024/01/10 14:01:03;;;;;;;12.32;6.97;;;;;;;;;;5052264;28;20455;-63
2024/01/10 14:03:29;;;;;;;12.70;7.20;;;;;;;;;;5052854;28;20425;-63
2024/01/10 14:05:54;;;;;;;12.30;7.00;;;;;;;;;;5052464;28;20432;-63
2024/01/10 14:08:19;;;;;;;12.85;7.22;;;;;;;;;;5051946;28;20409;-63
2024/01/10 14:10:44;;;;;;;11.60;7.03;;;;;;;;;;5052685;28;20433;-63
2024/01/10 14:13:10;;;;;;;11.83;7.07;;;;;;;;;;5051537;28;20446;-63
2024/01/10 14:15:35;;;;;;;11.50;7.30;;;;;;;;;;5052509;28;20881;-62
2024/01/10 14:18:01;;;;;;;16.80;9.87;;;;;;;;;;5051531;28;20772;-63
2024/01/10 14:20:26;;;;;;;31.37;16.67;;;;;;;;;;5053624;28;20393;-62
2024/01/10 14:22:51;;;;;;;36.10;18.37;;;;;;;;;;5053020;28;20410;-62
2024/01/10 14:25:17;;;;;;;13.05;7.55;;;;;;;;;;5051921;28;20409;-63